sensor_id;sensor_type;location;lat;lon;timestamp;pressure;altitude;pressure_sealevel;temperature;humidity
68656;BME280;55638;51.122;13.606;2023-08-21T00:01:06;100698.34;;;21.56;57.26
68656;BME280;55638;51.122;13.606;2023-08-21T00:02:39;100701.94;;;21.56;57.17
68656;BME280;55638;51.122;13.606;2023-08-21T00:04:11;100703.00;;;21.55;57.22
68656;BME280;55638;51.122;13.606;2023-08-21T00:05:43;100695.78;;;21.54;57.22
68656;BME280;55638;51.122;13.606;2023-08-21T00:07:15;100688.59;;;21.53;57.52
68656;BME280;55638;51.122;13.606;2023-08-21T00:08:47;100688.59;;;21.53;57.72
68656;BME280;55638;51.122;13.606;2023-08-21T00:10:19;100674.03;;;21.53;58.02
68656;BME280;55638;51.122;13.606;2023-08-21T00:11:51;100681.44;;;21.52;57.97
68656;BME280;55638;51.122;13.606;2023-08-21T00:13:23;100682.28;;;21.53;57.66
68656;BME280;55638;51.122;13.606;2023-08-21T00:14:55;100679.69;;;21.51;57.60
68656;BME280;55638;51.122;13.606;2023-08-21T00:16:27;100679.69;;;21.51;57.58
68656;BME280;55638;51.122;13.606;2023-08-21T00:18:00;100680.75;;;21.50;57.73
68656;BME280;55638;51.122;13.606;2023-08-21T00:19:32;100674.59;;;21.48;58.01
68656;BME280;55638;51.122;13.606;2023-08-21T00:21:04;100675.59;;;21.47;58.05
68656;BME280;55638;51.122;13.606;2023-08-21T00:22:37;100677.50;;;21.47;58.12
68656;BME280;55638;51.122;13.606;2023-08-21T00:24:09;100678.72;;;21.44;58.04
68656;BME280;55638;51.122;13.606;2023-08-21T00:25:46;100676.81;;;21.45;58.50
68656;BME280;55638;51.122;13.606;2023-08-21T00:27:19;100660.56;;;21.43;57.92
68656;BME280;55638;51.122;13.606;2023-08-21T00:28:51;100664.38;;;21.42;57.91
68656;BME280;55638;51.122;13.606;2023-08-21T00:30:23;100663.50;;;21.42;58.30
68656;BME280;55638;51.122;13.606;2023-08-21T00:31:55;100662.66;;;21.41;58.07
68656;BME280;55638;51.122;13.606;2023-08-21T00:33:27;100664.38;;;21.42;58.24
68656;BME280;55638;51.122;13.606;2023-08-21T00:34:59;100657.16;;;21.41;58.44
68656;BME280;55638;51.122;13.606;2023-08-21T00:36:31;100651.03;;;21.39;58.47
68656;BME280;55638;51.122;13.606;2023-08-21T00:38:03;100656.53;;;21.39;58.59
68656;BME280;55638;51.122;13.606;2023-08-21T00:39:35;100662.16;;;21.38;58.78
68656;BME280;55638;51.122;13.606;2023-08-21T00:41:07;100650.34;;;21.37;59.00
68656;BME280;55638;51.122;13.606;2023-08-21T00:42:39;100650.34;;;21.37;58.86
68656;BME280;55638;51.122;13.606;2023-08-21T00:44:11;100649.50;;;21.37;58.73
68656;BME280;55638;51.122;13.606;2023-08-21T00:45:44;100656.88;;;21.36;58.83
68656;BME280;55638;51.122;13.606;2023-08-21T00:47:17;100667.66;;;21.38;59.06
68656;BME280;55638;51.122;13.606;2023-08-21T00:48:52;100669.72;;;21.35;58.78
68656;BME280;55638;51.122;13.606;2023-08-21T00:50:24;100662.53;;;21.34;59.07
68656;BME280;55638;51.122;13.606;2023-08-21T00:51:56;100664.25;;;21.35;58.83
68656;BME280;55638;51.122;13.606;2023-08-21T00:53:28;100662.38;;;21.36;58.69
68656;BME280;55638;51.122;13.606;2023-08-21T00:55:00;100661.31;;;21.37;58.85
68656;BME280;55638;51.122;13.606;2023-08-21T00:56:33;100655.16;;;21.35;59.17
68656;BME280;55638;51.122;13.606;2023-08-21T00:58:05;100659.63;;;21.36;59.01
68656;BME280;55638;51.122;13.606;2023-08-21T00:59:38;100661.69;;;21.34;59.02
68656;BME280;55638;51.122;13.606;2023-08-21T01:01:12;100655.16;;;21.35;58.98
68656;BME280;55638;51.122;13.606;2023-08-21T01:02:45;100665.13;;;21.36;58.62
68656;BME280;55638;51.122;13.606;2023-08-21T01:04:17;100663.38;;;21.35;58.98
68656;BME280;55638;51.122;13.606;2023-08-21T01:05:50;100671.63;;;21.35;58.74
68656;BME280;55638;51.122;13.606;2023-08-21T01:07:22;100678.16;;;21.34;59.08
68656;BME280;55638;51.122;13.606;2023-08-21T01:09:06;100677.47;;;21.32;59.44
68656;BME280;55638;51.122;13.606;2023-08-21T01:10:56;100676.84;;;21.30;59.61
68656;BME280;55638;51.122;13.606;2023-08-21T01:12:38;100670.97;;;21.33;59.33
68656;BME280;55638;51.122;13.606;2023-08-21T01:14:35;100677.47;;;21.32;59.51
68656;BME280;55638;51.122;13.606;2023-08-21T01:16:08;100683.84;;;21.32;59.07
68656;BME280;55638;51.122;13.606;2023-08-21T01:17:42;100679.38;;;21.31;59.02
68656;BME280;55638;51.122;13.606;2023-08-21T01:19:37;100681.25;;;21.31;59.32
68656;BME280;55638;51.122;13.606;2023-08-21T01:21:10;100682.31;;;21.30;58.91
68656;BME280;55638;51.122;13.606;2023-08-21T01:22:43;100690.72;;;21.28;59.10
68656;BME280;55638;51.122;13.606;2023-08-21T01:24:21;100689.69;;;21.29;59.53
68656;BME280;55638;51.122;13.606;2023-08-21T01:25:53;100670.66;;;21.28;58.97
68656;BME280;55638;51.122;13.606;2023-08-21T01:27:25;100667.09;;;21.27;58.84
68656;BME280;55638;51.122;13.606;2023-08-21T01:28:57;100662.66;;;21.26;59.11
68656;BME280;55638;51.122;13.606;2023-08-21T01:30:31;100662.66;;;21.26;59.34
68656;BME280;55638;51.122;13.606;2023-08-21T01:32:09;100661.97;;;21.24;59.39
68656;BME280;55638;51.122;13.606;2023-08-21T01:33:47;100661.28;;;21.22;59.88
68656;BME280;55638;51.122;13.606;2023-08-21T01:35:22;100667.66;;;21.23;59.65
68656;BME280;55638;51.122;13.606;2023-08-21T01:36:55;100666.97;;;21.21;59.36
68656;BME280;55638;51.122;13.606;2023-08-21T01:38:30;100666.97;;;21.21;59.22
68656;BME280;55638;51.122;13.606;2023-08-21T01:40:02;100658.06;;;21.19;59.28
68656;BME280;55638;51.122;13.606;2023-08-21T01:41:34;100657.22;;;21.18;59.23
68656;BME280;55638;51.122;13.606;2023-08-21T01:43:06;100652.97;;;21.16;59.59
68656;BME280;55638;51.122;13.606;2023-08-21T01:44:38;100656.75;;;21.15;59.73
68656;BME280;55638;51.122;13.606;2023-08-21T01:46:11;100656.75;;;21.15;59.52
68656;BME280;55638;51.122;13.606;2023-08-21T01:47:44;100658.81;;;21.13;59.59
68656;BME280;55638;51.122;13.606;2023-08-21T01:49:15;100655.22;;;21.12;59.68
68656;BME280;55638;51.122;13.606;2023-08-21T01:50:50;100658.19;;;21.10;59.91
68656;BME280;55638;51.122;13.606;2023-08-21T01:52:22;100657.31;;;21.10;59.81
68656;BME280;55638;51.122;13.606;2023-08-21T01:53:54;100657.31;;;21.10;60.11
68656;BME280;55638;51.122;13.606;2023-08-21T01:55:26;100655.59;;;21.09;59.87
68656;BME280;55638;51.122;13.606;2023-08-21T01:56:58;100652.69;;;21.10;59.58
68656;BME280;55638;51.122;13.606;2023-08-21T01:58:30;100656.66;;;21.08;59.65
68656;BME280;55638;51.122;13.606;2023-08-21T02:00:03;100654.97;;;21.07;60.04
68656;BME280;55638;51.122;13.606;2023-08-21T02:01:44;100661.47;;;21.06;59.82
68656;BME280;55638;51.122;13.606;2023-08-21T02:03:16;100668.84;;;21.05;59.92
68656;BME280;55638;51.122;13.606;2023-08-21T02:04:49;100667.13;;;21.04;59.91
68656;BME280;55638;51.122;13.606;2023-08-21T02:06:21;100666.28;;;21.04;59.95
68656;BME280;55638;51.122;13.606;2023-08-21T02:07:53;100666.28;;;21.04;59.80
68656;BME280;55638;51.122;13.606;2023-08-21T02:09:25;100667.31;;;21.03;59.91
68656;BME280;55638;51.122;13.606;2023-08-21T02:10:57;100666.28;;;21.04;59.74
68656;BME280;55638;51.122;13.606;2023-08-21T02:12:29;100657.38;;;21.02;59.85
68656;BME280;55638;51.122;13.606;2023-08-21T02:14:02;100651.06;;;21.01;59.93
68656;BME280;55638;51.122;13.606;2023-08-21T02:15:34;100648.50;;;21.00;60.38
68656;BME280;55638;51.122;13.606;2023-08-21T02:17:06;100647.66;;;20.99;60.53
68656;BME280;55638;51.122;13.606;2023-08-21T02:18:38;100643.00;;;21.00;60.64
68656;BME280;55638;51.122;13.606;2023-08-21T02:20:10;100651.22;;;21.00;60.22
68656;BME280;55638;51.122;13.606;2023-08-21T02:21:42;100655.03;;;20.99;60.36
68656;BME280;55638;51.122;13.606;2023-08-21T02:23:14;100661.34;;;20.99;60.58
68656;BME280;55638;51.122;13.606;2023-08-21T02:24:47;100658.59;;;20.99;60.36
68656;BME280;55638;51.122;13.606;2023-08-21T02:26:19;100664.94;;;21.00;60.67
68656;BME280;55638;51.122;13.606;2023-08-21T02:27:51;100655.03;;;20.99;60.78
68656;BME280;55638;51.122;13.606;2023-08-21T02:29:23;100659.44;;;21.00;60.68
68656;BME280;55638;51.122;13.606;2023-08-21T02:30:55;100663.06;;;21.00;60.45
68656;BME280;55638;51.122;13.606;2023-08-21T02:32:27;100650.38;;;20.99;60.24
68656;BME280;55638;51.122;13.606;2023-08-21T02:33:59;100645.94;;;20.98;60.35
68656;BME280;55638;51.122;13.606;2023-08-21T02:35:31;100653.31;;;20.98;60.70
68656;BME280;55638;51.122;13.606;2023-08-21T02:37:03;100651.63;;;20.97;60.40
68656;BME280;55638;51.122;13.606;2023-08-21T02:38:36;100646.16;;;20.97;60.54
68656;BME280;55638;51.122;13.606;2023-08-21T02:40:08;100658.97;;;20.96;60.75
68656;BME280;55638;51.122;13.606;2023-08-21T02:41:40;100658.97;;;20.96;60.60
68656;BME280;55638;51.122;13.606;2023-08-21T02:43:13;100649.25;;;20.94;60.62
68656;BME280;55638;51.122;13.606;2023-08-21T02:44:45;100642.06;;;20.93;60.47
68656;BME280;55638;51.122;13.606;2023-08-21T02:46:17;100646.69;;;20.92;60.81
68656;BME280;55638;51.122;13.606;2023-08-21T02:47:49;100656.59;;;20.93;60.48
68656;BME280;55638;51.122;13.606;2023-08-21T02:49:21;100648.59;;;20.92;60.34
68656;BME280;55638;51.122;13.606;2023-08-21T02:50:53;100659.72;;;20.90;60.80
68656;BME280;55638;51.122;13.606;2023-08-21T02:52:25;100663.50;;;20.89;60.79
68656;BME280;55638;51.122;13.606;2023-08-21T02:53:57;100655.66;;;20.86;60.67
68656;BME280;55638;51.122;13.606;2023-08-21T02:55:29;100663.88;;;20.86;60.32
68656;BME280;55638;51.122;13.606;2023-08-21T02:57:01;100660.47;;;20.84;60.29
68656;BME280;55638;51.122;13.606;2023-08-21T02:58:33;100657.06;;;20.82;60.64
68656;BME280;55638;51.122;13.606;2023-08-21T03:00:05;100658.25;;;20.79;60.85
68656;BME280;55638;51.122;13.606;2023-08-21T03:01:39;100666.66;;;20.78;61.05
68656;BME280;55638;51.122;13.606;2023-08-21T03:03:11;100674.19;;;20.76;60.59
68656;BME280;55638;51.122;13.606;2023-08-21T03:04:43;100676.78;;;20.77;60.69
68656;BME280;55638;51.122;13.606;2023-08-21T03:06:15;100669.09;;;20.73;60.55
68656;BME280;55638;51.122;13.606;2023-08-21T03:07:48;100671.19;;;20.71;60.62
68656;BME280;55638;51.122;13.606;2023-08-21T03:09:20;100665.00;;;20.69;60.94
68656;BME280;55638;51.122;13.606;2023-08-21T03:10:52;100669.81;;;20.67;60.60
68656;BME280;55638;51.122;13.606;2023-08-21T03:12:25;100674.66;;;20.64;60.36
68656;BME280;55638;51.122;13.606;2023-08-21T03:13:57;100675.84;;;20.62;60.83
68656;BME280;55638;51.122;13.606;2023-08-21T03:15:29;100669.88;;;20.58;60.70
68656;BME280;55638;51.122;13.606;2023-08-21T03:17:00;100672.16;;;20.55;60.67
68656;BME280;55638;51.122;13.606;2023-08-21T03:18:54;100666.53;;;20.48;60.91
68656;BME280;55638;51.122;13.606;2023-08-21T03:20:26;100665.50;;;20.49;60.38
68656;BME280;55638;51.122;13.606;2023-08-21T03:21:58;100670.28;;;20.47;60.31
68656;BME280;55638;51.122;13.606;2023-08-21T03:23:31;100668.13;;;20.42;60.27
68656;BME280;55638;51.122;13.606;2023-08-21T03:25:03;100661.31;;;20.38;60.53
68656;BME280;55638;51.122;13.606;2023-08-21T03:26:35;100664.41;;;20.35;60.59
68656;BME280;55638;51.122;13.606;2023-08-21T03:28:07;100666.66;;;20.32;60.83
68656;BME280;55638;51.122;13.606;2023-08-21T03:29:39;100665.28;;;20.28;60.56
68656;BME280;55638;51.122;13.606;2023-08-21T03:31:12;100662.75;;;20.26;60.80
68656;BME280;55638;51.122;13.606;2023-08-21T03:32:44;100670.63;;;20.21;60.47
68656;BME280;55638;51.122;13.606;2023-08-21T03:34:16;100661.94;;;20.17;60.65
68656;BME280;55638;51.122;13.606;2023-08-21T03:35:53;100663.34;;;20.13;61.10
68656;BME280;55638;51.122;13.606;2023-08-21T03:37:26;100667.25;;;20.11;60.81
68656;BME280;55638;51.122;13.606;2023-08-21T03:39:01;100667.59;;;20.08;61.54
68656;BME280;55638;51.122;13.606;2023-08-21T03:40:37;100672.41;;;20.06;61.39
68656;BME280;55638;51.122;13.606;2023-08-21T03:42:09;100667.28;;;20.03;61.01
68656;BME280;55638;51.122;13.606;2023-08-21T03:43:41;100667.66;;;20.00;61.21
68656;BME280;55638;51.122;13.606;2023-08-21T03:45:13;100665.94;;;19.99;61.39
68656;BME280;55638;51.122;13.606;2023-08-21T03:46:45;100675.38;;;19.96;61.17
68656;BME280;55638;51.122;13.606;2023-08-21T03:48:18;100677.41;;;19.94;60.92
68656;BME280;55638;51.122;13.606;2023-08-21T03:49:50;100675.03;;;19.91;61.13
68656;BME280;55638;51.122;13.606;2023-08-21T03:51:25;100678.13;;;19.88;60.93
68656;BME280;55638;51.122;13.606;2023-08-21T03:52:57;100668.38;;;19.85;60.90
68656;BME280;55638;51.122;13.606;2023-08-21T03:54:29;100666.84;;;19.83;61.06
68656;BME280;55638;51.122;13.606;2023-08-21T03:56:00;100675.44;;;19.80;61.07
68656;BME280;55638;51.122;13.606;2023-08-21T03:57:32;100664.84;;;19.77;61.53
68656;BME280;55638;51.122;13.606;2023-08-21T03:59:04;100672.38;;;19.75;61.12
68656;BME280;55638;51.122;13.606;2023-08-21T04:00:36;100670.00;;;19.71;61.27
68656;BME280;55638;51.122;13.606;2023-08-21T04:02:08;100678.38;;;19.70;61.55
68656;BME280;55638;51.122;13.606;2023-08-21T04:03:40;100674.09;;;19.67;61.58
68656;BME280;55638;51.122;13.606;2023-08-21T04:05:12;100672.72;;;19.63;61.50
68656;BME280;55638;51.122;13.606;2023-08-21T04:06:44;100669.34;;;19.61;61.67
68656;BME280;55638;51.122;13.606;2023-08-21T04:08:16;100671.38;;;19.59;61.73
68656;BME280;55638;51.122;13.606;2023-08-21T04:09:48;100674.31;;;19.58;61.39
68656;BME280;55638;51.122;13.606;2023-08-21T04:11:20;100680.97;;;19.55;61.33
68656;BME280;55638;51.122;13.606;2023-08-21T04:12:52;100677.56;;;19.53;61.76
68656;BME280;55638;51.122;13.606;2023-08-21T04:14:24;100680.28;;;19.53;61.43
68656;BME280;55638;51.122;13.606;2023-08-21T04:15:57;100670.59;;;19.51;61.63
68656;BME280;55638;51.122;13.606;2023-08-21T04:17:29;100677.25;;;19.48;61.93
68656;BME280;55638;51.122;13.606;2023-08-21T04:19:01;100678.25;;;19.47;62.01
68656;BME280;55638;51.122;13.606;2023-08-21T04:20:33;100688.34;;;19.46;62.05
68656;BME280;55638;51.122;13.606;2023-08-21T04:22:06;100685.78;;;19.45;62.06
68656;BME280;55638;51.122;13.606;2023-08-21T04:23:38;100683.22;;;19.43;62.22
68656;BME280;55638;51.122;13.606;2023-08-21T04:25:10;100675.22;;;19.42;62.34
68656;BME280;55638;51.122;13.606;2023-08-21T04:26:42;100682.38;;;19.43;62.22
68656;BME280;55638;51.122;13.606;2023-08-21T04:28:15;100688.69;;;19.43;62.26
68656;BME280;55638;51.122;13.606;2023-08-21T04:29:47;100684.25;;;19.42;62.62
68656;BME280;55638;51.122;13.606;2023-08-21T04:31:18;100686.13;;;19.42;62.68
68656;BME280;55638;51.122;13.606;2023-08-21T04:32:52;100680.69;;;19.42;62.53
68656;BME280;55638;51.122;13.606;2023-08-21T04:34:25;100689.56;;;19.44;62.39
68656;BME280;55638;51.122;13.606;2023-08-21T04:35:57;100690.41;;;19.44;62.69
68656;BME280;55638;51.122;13.606;2023-08-21T04:37:30;100687.50;;;19.46;62.84
68656;BME280;55638;51.122;13.606;2023-08-21T04:39:02;100679.97;;;19.48;62.71
68656;BME280;55638;51.122;13.606;2023-08-21T04:40:34;100684.41;;;19.49;62.66
68656;BME280;55638;51.122;13.606;2023-08-21T04:42:06;100681.53;;;19.51;62.72
68656;BME280;55638;51.122;13.606;2023-08-21T04:43:38;100679.44;;;19.53;63.18
68656;BME280;55638;51.122;13.606;2023-08-21T04:45:12;100681.16;;;19.54;62.90
68656;BME280;55638;51.122;13.606;2023-08-21T04:46:47;100687.13;;;19.57;63.13
68656;BME280;55638;51.122;13.606;2023-08-21T04:48:20;100679.59;;;19.59;62.71
68656;BME280;55638;51.122;13.606;2023-08-21T04:49:54;100685.75;;;19.61;62.99
68656;BME280;55638;51.122;13.606;2023-08-21T04:51:27;100683.66;;;19.63;62.56
68656;BME280;55638;51.122;13.606;2023-08-21T04:52:59;100689.16;;;19.63;62.94
68656;BME280;55638;51.122;13.606;2023-08-21T04:54:31;100691.53;;;19.66;62.69
68656;BME280;55638;51.122;13.606;2023-08-21T04:56:03;100691.38;;;19.68;62.88
68656;BME280;55638;51.122;13.606;2023-08-21T04:57:37;100689.31;;;19.70;62.85
68656;BME280;55638;51.122;13.606;2023-08-21T04:59:12;100686.41;;;19.71;62.51
68656;BME280;55638;51.122;13.606;2023-08-21T05:00:44;100688.09;;;19.72;62.68
68656;BME280;55638;51.122;13.606;2023-08-21T05:02:18;100689.63;;;19.75;62.65
68656;BME280;55638;51.122;13.606;2023-08-21T05:03:50;100689.47;;;19.77;62.42
68656;BME280;55638;51.122;13.606;2023-08-21T05:05:23;100694.75;;;19.78;62.35
68656;BME280;55638;51.122;13.606;2023-08-21T05:06:57;100686.53;;;19.78;62.65
68656;BME280;55638;51.122;13.606;2023-08-21T05:08:29;100689.13;;;19.80;62.70
68656;BME280;55638;51.122;13.606;2023-08-21T05:10:01;100699.69;;;19.83;62.68
68656;BME280;55638;51.122;13.606;2023-08-21T05:11:37;100694.03;;;19.84;62.92
68656;BME280;55638;51.122;13.606;2023-08-21T05:13:09;100688.38;;;19.86;62.54
68656;BME280;55638;51.122;13.606;2023-08-21T05:14:41;100701.06;;;19.87;62.53
68656;BME280;55638;51.122;13.606;2023-08-21T05:16:13;100701.53;;;19.90;62.92
68656;BME280;55638;51.122;13.606;2023-08-21T05:17:46;100696.94;;;19.91;62.71
68656;BME280;55638;51.122;13.606;2023-08-21T05:19:18;100707.50;;;19.94;62.70
68656;BME280;55638;51.122;13.606;2023-08-21T05:20:53;100699.13;;;19.95;62.82
68656;BME280;55638;51.122;13.606;2023-08-21T05:22:26;100700.66;;;19.98;62.76
68656;BME280;55638;51.122;13.606;2023-08-21T05:23:58;100695.88;;;20.00;62.62
68656;BME280;55638;51.122;13.606;2023-08-21T05:25:32;100706.44;;;20.03;62.63
68656;BME280;55638;51.122;13.606;2023-08-21T05:27:04;100708.00;;;20.06;62.30
68656;BME280;55638;51.122;13.606;2023-08-21T05:28:36;100707.59;;;20.09;62.63
68656;BME280;55638;51.122;13.606;2023-08-21T05:30:09;100713.63;;;20.12;62.77
68656;BME280;55638;51.122;13.606;2023-08-21T05:31:42;100707.41;;;20.18;63.60
68656;BME280;55638;51.122;13.606;2023-08-21T05:33:14;100707.38;;;20.27;64.38
68656;BME280;55638;51.122;13.606;2023-08-21T05:34:48;100702.00;;;20.41;64.73
68656;BME280;55638;51.122;13.606;2023-08-21T05:36:21;100704.44;;;20.59;65.58
68656;BME280;55638;51.122;13.606;2023-08-21T05:37:53;100707.22;;;20.82;65.18
68656;BME280;55638;51.122;13.606;2023-08-21T05:39:25;100716.75;;;21.09;65.35
68656;BME280;55638;51.122;13.606;2023-08-21T05:40:57;100710.69;;;21.37;65.39
68656;BME280;55638;51.122;13.606;2023-08-21T05:42:30;100710.38;;;21.70;64.80
68656;BME280;55638;51.122;13.606;2023-08-21T05:44:02;100713.56;;;22.03;64.31
68656;BME280;55638;51.122;13.606;2023-08-21T05:45:34;100708.50;;;22.36;63.58
68656;BME280;55638;51.122;13.606;2023-08-21T05:47:06;100697.69;;;22.71;63.17
68656;BME280;55638;51.122;13.606;2023-08-21T05:48:38;100701.44;;;23.06;62.38
68656;BME280;55638;51.122;13.606;2023-08-21T05:50:10;100699.63;;;23.41;61.88
68656;BME280;55638;51.122;13.606;2023-08-21T05:51:42;100706.00;;;23.77;60.59
68656;BME280;55638;51.122;13.606;2023-08-21T05:53:14;100709.16;;;24.08;59.46
68656;BME280;55638;51.122;13.606;2023-08-21T05:54:46;100710.34;;;24.41;58.56
68656;BME280;55638;51.122;13.606;2023-08-21T05:56:18;100713.22;;;24.67;57.75
68656;BME280;55638;51.122;13.606;2023-08-21T05:57:50;100706.03;;;24.93;57.51
68656;BME280;55638;51.122;13.606;2023-08-21T05:59:30;100713.47;;;25.19;56.14
68656;BME280;55638;51.122;13.606;2023-08-21T06:01:04;100715.81;;;25.42;56.45
68656;BME280;55638;51.122;13.606;2023-08-21T06:02:37;100710.06;;;25.63;55.71
68656;BME280;55638;51.122;13.606;2023-08-21T06:04:10;100709.00;;;25.84;55.42
68656;BME280;55638;51.122;13.606;2023-08-21T06:05:47;100712.94;;;26.08;54.74
68656;BME280;55638;51.122;13.606;2023-08-21T06:07:19;100708.16;;;26.29;54.31
68656;BME280;55638;51.122;13.606;2023-08-21T06:08:51;100710.00;;;26.48;53.66
68656;BME280;55638;51.122;13.606;2023-08-21T06:10:23;100701.81;;;26.66;52.51
68656;BME280;55638;51.122;13.606;2023-08-21T06:11:55;100699.81;;;26.80;51.74
68656;BME280;55638;51.122;13.606;2023-08-21T06:13:27;100699.34;;;26.90;51.45
68656;BME280;55638;51.122;13.606;2023-08-21T06:15:00;100700.13;;;26.97;50.94
68656;BME280;55638;51.122;13.606;2023-08-21T06:16:32;100705.22;;;27.00;49.91
68656;BME280;55638;51.122;13.606;2023-08-21T06:18:04;100706.06;;;27.01;49.94
68656;BME280;55638;51.122;13.606;2023-08-21T06:19:36;100703.75;;;26.98;49.41
68656;BME280;55638;51.122;13.606;2023-08-21T06:21:08;100712.72;;;26.93;49.20
68656;BME280;55638;51.122;13.606;2023-08-21T06:22:41;100703.59;;;26.86;49.00
68656;BME280;55638;51.122;13.606;2023-08-21T06:24:13;100707.69;;;26.77;49.19
68656;BME280;55638;51.122;13.606;2023-08-21T06:25:47;100701.59;;;26.68;48.88
68656;BME280;55638;51.122;13.606;2023-08-21T06:27:20;100704.22;;;26.56;48.92
68656;BME280;55638;51.122;13.606;2023-08-21T06:28:52;100712.16;;;26.46;48.85
68656;BME280;55638;51.122;13.606;2023-08-21T06:30:25;100710.91;;;26.35;49.23
68656;BME280;55638;51.122;13.606;2023-08-21T06:31:57;100714.97;;;26.26;49.27
68656;BME280;55638;51.122;13.606;2023-08-21T06:33:30;100715.44;;;26.16;49.43
68656;BME280;55638;51.122;13.606;2023-08-21T06:35:02;100709.09;;;26.09;49.46
68656;BME280;55638;51.122;13.606;2023-08-21T06:36:34;100710.81;;;26.04;49.41
68656;BME280;55638;51.122;13.606;2023-08-21T06:38:06;100717.00;;;25.99;49.51
68656;BME280;55638;51.122;13.606;2023-08-21T06:39:38;100716.59;;;25.95;49.57
68656;BME280;55638;51.122;13.606;2023-08-21T06:41:11;100704.91;;;25.93;49.90
68656;BME280;55638;51.122;13.606;2023-08-21T06:42:43;100721.91;;;25.90;49.78
68656;BME280;55638;51.122;13.606;2023-08-21T06:44:15;100720.22;;;25.89;49.80
68656;BME280;55638;51.122;13.606;2023-08-21T06:45:47;100721.28;;;25.88;50.10
68656;BME280;55638;51.122;13.606;2023-08-21T06:47:19;100717.88;;;25.86;49.83
68656;BME280;55638;51.122;13.606;2023-08-21T06:48:51;100722.34;;;25.87;50.03
68656;BME280;55638;51.122;13.606;2023-08-21T06:50:23;100717.44;;;25.89;50.05
68656;BME280;55638;51.122;13.606;2023-08-21T06:51:55;100723.63;;;25.91;49.94
68656;BME280;55638;51.122;13.606;2023-08-21T06:53:27;100726.56;;;25.96;49.75
68656;BME280;55638;51.122;13.606;2023-08-21T06:54:59;100726.13;;;26.00;50.08
68656;BME280;55638;51.122;13.606;2023-08-21T06:56:31;100729.94;;;26.05;50.07
68656;BME280;55638;51.122;13.606;2023-08-21T06:58:03;100725.66;;;26.09;49.77
68656;BME280;55638;51.122;13.606;2023-08-21T06:59:36;100726.06;;;26.13;49.24
68656;BME280;55638;51.122;13.606;2023-08-21T07:01:09;100726.47;;;26.16;48.91
68656;BME280;55638;51.122;13.606;2023-08-21T07:02:42;100729.88;;;26.18;48.96
68656;BME280;55638;51.122;13.606;2023-08-21T07:04:13;100726.03;;;26.19;48.93
68656;BME280;55638;51.122;13.606;2023-08-21T07:05:46;100739.66;;;26.21;48.87
68656;BME280;55638;51.122;13.606;2023-08-21T07:07:19;100728.63;;;26.21;48.97
68656;BME280;55638;51.122;13.606;2023-08-21T07:08:51;100740.50;;;26.22;48.57
68656;BME280;55638;51.122;13.606;2023-08-21T07:10:23;100743.91;;;26.24;49.01
68656;BME280;55638;51.122;13.606;2023-08-21T07:11:55;100746.25;;;26.27;48.83
68656;BME280;55638;51.122;13.606;2023-08-21T07:13:28;100747.50;;;26.31;48.80
68656;BME280;55638;51.122;13.606;2023-08-21T07:15:00;100743.03;;;26.36;48.66
68656;BME280;55638;51.122;13.606;2023-08-21T07:16:34;100737.69;;;26.41;48.18
68656;BME280;55638;51.122;13.606;2023-08-21T07:18:06;100743.19;;;26.48;48.39
68656;BME280;55638;51.122;13.606;2023-08-21T07:19:39;100738.25;;;26.57;47.93
68656;BME280;55638;51.122;13.606;2023-08-21T07:21:11;100739.06;;;26.64;47.65
68656;BME280;55638;51.122;13.606;2023-08-21T07:23:03;100740.50;;;26.73;47.68
68656;BME280;55638;51.122;13.606;2023-08-21T07:24:35;100734.91;;;26.80;47.45
68656;BME280;55638;51.122;13.606;2023-08-21T07:26:07;100744.00;;;26.87;47.34
68656;BME280;55638;51.122;13.606;2023-08-21T07:27:39;100742.31;;;26.93;46.92
68656;BME280;55638;51.122;13.606;2023-08-21T07:29:12;100738.88;;;26.97;46.38
68656;BME280;55638;51.122;13.606;2023-08-21T07:30:44;100738.41;;;27.00;46.41
68656;BME280;55638;51.122;13.606;2023-08-21T07:32:16;100738.41;;;27.00;46.26
68656;BME280;55638;51.122;13.606;2023-08-21T07:33:48;100740.34;;;27.00;46.18
68656;BME280;55638;51.122;13.606;2023-08-21T07:35:20;100737.56;;;27.00;46.18
68656;BME280;55638;51.122;13.606;2023-08-21T07:36:52;100735.03;;;26.98;46.53
68656;BME280;55638;51.122;13.606;2023-08-21T07:38:24;100738.88;;;26.97;46.27
68656;BME280;55638;51.122;13.606;2023-08-21T07:39:56;100734.41;;;26.96;46.62
68656;BME280;55638;51.122;13.606;2023-08-21T07:41:29;100735.50;;;26.95;46.31
68656;BME280;55638;51.122;13.606;2023-08-21T07:43:01;100734.41;;;26.96;46.16
68656;BME280;55638;51.122;13.606;2023-08-21T07:44:33;100733.56;;;26.96;46.22
68656;BME280;55638;51.122;13.606;2023-08-21T07:46:07;100733.56;;;26.96;45.76
68656;BME280;55638;51.122;13.606;2023-08-21T07:47:39;100730.81;;;26.96;45.70
68656;BME280;55638;51.122;13.606;2023-08-21T07:49:11;100730.81;;;26.96;45.90
68656;BME280;55638;51.122;13.606;2023-08-21T07:50:51;100737.19;;;26.96;45.88
68656;BME280;55638;51.122;13.606;2023-08-21T07:52:23;100727.34;;;27.00;46.19
68656;BME280;55638;51.122;13.606;2023-08-21T07:53:55;100735.84;;;27.05;46.34
68656;BME280;55638;51.122;13.606;2023-08-21T07:55:31;100732.19;;;27.11;46.26
68656;BME280;55638;51.122;13.606;2023-08-21T07:57:03;100747.19;;;27.22;46.07
68656;BME280;55638;51.122;13.606;2023-08-21T07:58:35;100741.78;;;27.34;46.31
68656;BME280;55638;51.122;13.606;2023-08-21T08:00:08;100738.47;;;27.50;46.26